Time;durP1;ratioP1;P1;durP2;ratioP2;P2;SDS_P1;SDS_P2;PMS_P1;PMS_P2;Temp;Humidity;BMP_temperature;BMP_pressure;BME280_temperature;BME280_humidity;BME280_pressure;Samples;Min_cycle;Max_cycle;Signal;HPM_P1;HPM_P2
2022/08/11 00:01:58;;;;;;;3.10;2.90;;;25.80;97.40;;;;;;4156425;28;20220;-74
2022/08/11 00:04:03;;;;;;;3.42;3.13;;;25.70;97.80;;;;;;4163741;28;20212;-74
2022/08/11 00:06:06;;;;;;;3.53;3.17;;;25.70;97.40;;;;;;4162910;28;20217;-74
2022/08/11 00:08:10;;;;;;;3.92;2.90;;;25.70;97.50;;;;;;4163171;28;20605;-74
2022/08/11 00:10:14;;;;;;;2.97;2.70;;;25.70;97.50;;;;;;4163227;28;20232;-74
2022/08/11 00:12:18;;;;;;;3.38;3.05;;;25.70;97.60;;;;;;4163010;28;20605;-74
2022/08/11 00:14:23;;;;;;;3.25;2.92;;;25.70;97.60;;;;;;4162923;28;20216;-74
2022/08/11 00:16:27;;;;;;;3.15;2.85;;;25.70;97.60;;;;;;4159248;28;20822;-75
2022/08/11 00:18:38;;;;;;;3.45;3.15;;;25.70;97.70;;;;;;4160186;28;20720;-75
2022/08/11 00:20:43;;;;;;;2.88;2.63;;;25.70;97.50;;;;;;4162277;28;20217;-74
2022/08/11 00:22:48;;;;;;;3.10;2.80;;;25.70;97.80;;;;;;4162909;28;20660;-74
2022/08/11 00:24:51;;;;;;;3.15;2.63;;;25.70;97.60;;;;;;4162964;28;20212;-74
2022/08/11 00:26:54;;;;;;;3.20;2.90;;;25.70;97.60;;;;;;4162920;28;20608;-74
2022/08/11 00:29:07;;;;;;;3.70;2.90;;;25.70;97.60;;;;;;4162797;28;20735;-74
2022/08/11 00:31:23;;;;;;;2.83;2.60;;;25.60;97.70;;;;;;4162924;28;20228;-74
2022/08/11 00:33:33;;;;;;;2.70;2.42;;;25.60;97.60;;;;;;4163102;28;20308;-74
2022/08/11 00:35:36;;;;;;;3.15;2.85;;;25.60;97.60;;;;;;4162044;28;20285;-74
2022/08/11 00:37:39;;;;;;;2.90;2.70;;;25.60;97.70;;;;;;4162434;28;20208;-74
2022/08/11 00:39:45;;;;;;;2.83;2.63;;;25.70;98.00;;;;;;4162770;28;20217;-74
2022/08/11 00:42:06;;;;;;;3.33;3.03;;;25.60;97.60;;;;;;4162996;28;20209;-74
2022/08/11 00:44:32;;;;;;;3.03;2.65;;;25.60;97.90;;;;;;4162294;28;20220;-74
2022/08/11 00:46:46;;;;;;;3.40;3.10;;;25.60;97.90;;;;;;4162244;28;20339;-75
2022/08/11 00:49:01;;;;;;;3.10;2.67;;;25.60;97.80;;;;;;4153208;28;20242;-75
2022/08/11 00:51:15;;;;;;;3.13;2.83;;;25.50;98.00;;;;;;4162721;28;20278;-74
2022/08/11 00:53:46;;;;;;;4.07;2.55;;;25.60;97.80;;;;;;4158543;28;20656;-74
2022/08/11 00:56:22;;;;;;;2.83;2.63;;;25.60;97.90;;;;;;4162645;28;20217;-74
2022/08/11 00:59:04;;;;;;;3.20;2.90;;;25.60;97.90;;;;;;4158957;28;20212;-74
2022/08/11 01:01:14;;;;;;;3.25;2.70;;;25.60;98.10;;;;;;4162400;28;20615;-73
2022/08/11 01:03:28;;;;;;;3.90;2.67;;;25.60;97.90;;;;;;4162472;28;20591;-73
2022/08/11 01:05:51;;;;;;;3.10;2.58;;;25.50;98.00;;;;;;4162127;28;20222;-72
2022/08/11 01:08:35;;;;;;;3.92;2.75;;;25.50;98.10;;;;;;4159183;28;20220;-73
2022/08/11 01:11:20;;;;;;;3.00;2.67;;;25.50;98.30;;;;;;4162082;28;20315;-73
2022/08/11 01:13:52;;;;;;;3.15;2.65;;;25.50;98.10;;;;;;4149071;28;20754;-73
2022/08/11 01:16:11;;;;;;;2.92;2.60;;;25.50;98.10;;;;;;4159824;28;20320;-73
2022/08/11 01:18:55;;;;;;;2.78;2.55;;;25.50;98.10;;;;;;4157413;28;20260;-72
2022/08/11 01:21:33;;;;;;;3.25;2.70;;;25.50;98.30;;;;;;4159743;28;20270;-73
2022/08/11 01:24:26;;;;;;;3.45;2.55;;;25.50;98.30;;;;;;4161833;28;20216;-73
2022/08/11 01:27:19;;;;;;;6.30;2.70;;;25.50;98.50;;;;;;4159257;28;20213;-72
2022/08/11 01:30:03;;;;;;;4.15;2.95;;;25.50;98.30;;;;;;4079945;29;20247;-73
2022/08/11 01:32:40;;;;;;;2.97;2.67;;;25.50;98.50;;;;;;4152262;28;20757;-73
2022/08/11 01:35:33;;;;;;;3.40;3.10;;;25.40;98.40;;;;;;4161325;28;20216;-72
2022/08/11 01:38:27;;;;;;;3.47;3.17;;;25.50;98.40;;;;;;4127984;28;20263;-73
2022/08/11 01:41:20;;;;;;;2.75;2.47;;;25.50;98.60;;;;;;4160433;28;20208;-73
2022/08/11 01:46:39;;;;;;;2.83;2.42;;;25.40;98.80;;;;;;4162068;28;20268;-73
2022/08/11 01:48:44;;;;;;;2.35;2.15;;;25.40;98.50;;;;;;4161555;28;20274;-73
2022/08/11 01:51:02;;;;;;;3.30;2.70;;;25.40;98.60;;;;;;4161631;28;20232;-72
2022/08/11 01:53:17;;;;;;;2.80;2.50;;;25.40;98.60;;;;;;4161548;28;20212;-73
2022/08/11 01:55:26;;;;;;;5.03;2.80;;;25.40;98.60;;;;;;4158028;28;20633;-72
2022/08/11 01:57:36;;;;;;;3.17;2.72;;;25.40;98.50;;;;;;4161636;28;20219;-73
2022/08/11 01:59:47;;;;;;;3.00;2.70;;;25.40;98.60;;;;;;4159944;28;20215;-72
2022/08/11 02:02:05;;;;;;;2.55;2.35;;;25.40;98.60;;;;;;4161630;28;20251;-73
2022/08/11 02:04:18;;;;;;;2.90;2.60;;;25.40;99.00;;;;;;4161444;28;20270;-72
2022/08/11 02:09:02;;;;;;;2.58;2.38;;;25.40;98.70;;;;;;4161748;28;20188;-72
2022/08/11 02:11:29;;;;;;;3.05;2.28;;;25.40;98.60;;;;;;4158381;28;20266;-74
2022/08/11 02:13:41;;;;;;;2.60;2.40;;;25.40;98.70;;;;;;4158475;28;20212;-75
2022/08/11 02:15:47;;;;;;;2.90;2.58;;;25.40;98.60;;;;;;4161397;28;20618;-75
2022/08/11 02:17:59;;;;;;;3.30;2.60;;;25.40;98.70;;;;;;4161280;28;20719;-74
2022/08/11 02:25:01;;;;;;;3.95;2.63;;;25.40;98.80;;;;;;4161500;28;20192;-75
2022/08/11 02:27:08;;;;;;;2.97;2.60;;;25.30;98.80;;;;;;4161053;28;20281;-74
2022/08/11 02:29:18;;;;;;;3.85;2.50;;;25.30;98.90;;;;;;4161026;28;20288;-74
2022/08/11 02:33:57;;;;;;;2.88;2.50;;;25.30;99.10;;;;;;4161534;28;20193;-74
2022/08/11 02:36:07;;;;;;;3.20;2.38;;;25.30;98.90;;;;;;4161725;28;20220;-74
2022/08/11 02:38:20;;;;;;;3.45;2.22;;;25.30;98.90;;;;;;4161043;28;20262;-74
2022/08/11 02:40:31;;;;;;;2.70;2.50;;;25.30;98.90;;;;;;4158560;28;20262;-75
2022/08/11 02:42:36;;;;;;;2.83;2.53;;;25.30;99.20;;;;;;4161118;28;20274;-75
2022/08/11 02:44:51;;;;;;;2.30;1.85;;;25.30;98.90;;;;;;4160633;28;20262;-74
2022/08/11 02:47:02;;;;;;;2.92;2.30;;;25.30;99.00;;;;;;4158045;28;20286;-75
2022/08/11 02:51:42;;;;;;;2.72;2.40;;;25.30;99.10;;;;;;4161729;28;20213;-75
2022/08/11 02:53:54;;;;;;;2.20;2.00;;;25.30;99.10;;;;;;4160084;28;20275;-75
2022/08/11 02:56:07;;;;;;;2.72;2.35;;;25.30;99.10;;;;;;4161008;28;21087;-74
2022/08/11 02:58:14;;;;;;;3.25;2.60;;;25.30;99.10;;;;;;4160587;28;20220;-74
2022/08/11 03:00:17;;;;;;;3.40;2.80;;;25.30;99.20;;;;;;4158963;28;20665;-75
2022/08/11 03:02:41;;;;;;;2.60;2.38;;;25.30;99.30;;;;;;4164246;28;20550;-75
2022/08/11 03:04:59;;;;;;;2.40;2.20;;;25.30;99.20;;;;;;4163630;28;20718;-75
2022/08/11 03:07:08;;;;;;;2.63;2.20;;;25.20;99.20;;;;;;4164072;28;20208;-75
2022/08/11 03:09:17;;;;;;;2.55;2.35;;;25.30;99.30;;;;;;4163998;28;20270;-75
2022/08/11 03:16:47;;;;;;;2.58;2.38;;;25.20;99.30;;;;;;4162452;28;20668;-75
2022/08/11 03:18:56;;;;;;;3.25;2.25;;;25.20;99.40;;;;;;4164257;28;20204;-75
2022/08/11 03:21:06;;;;;;;3.17;2.42;;;25.20;99.40;;;;;;4161120;28;20212;-75
2022/08/11 03:23:17;;;;;;;2.28;2.00;;;25.20;99.40;;;;;;4164077;28;20270;-74
2022/08/11 03:25:30;;;;;;;3.65;2.50;;;25.20;99.40;;;;;;4164169;28;20962;-74
2022/08/11 03:27:46;;;;;;;3.08;2.38;;;25.20;99.50;;;;;;4163647;28;20258;-74
2022/08/11 03:30:04;;;;;;;2.70;2.50;;;25.20;99.50;;;;;;4163757;28;20660;-74
2022/08/11 03:32:19;;;;;;;3.05;2.40;;;25.20;99.60;;;;;;4163945;28;20664;-74
2022/08/11 03:34:24;;;;;;;2.55;2.15;;;25.10;99.60;;;;;;4160074;28;20259;-74
2022/08/11 03:36:59;;;;;;;3.00;2.53;;;25.20;99.40;;;;;;4163896;28;20537;-75
2022/08/11 03:39:16;;;;;;;3.00;2.30;;;25.20;99.50;;;;;;4163452;28;20220;-74
2022/08/11 03:41:43;;;;;;;2.95;2.05;;;25.20;99.40;;;;;;4163511;28;20254;-74
2022/08/11 03:44:00;;;;;;;2.80;2.60;;;25.10;99.60;;;;;;4163134;28;20208;-74
2022/08/11 03:46:08;;;;;;;4.20;2.67;;;25.10;99.60;;;;;;4163450;28;20220;-75
2022/08/11 03:48:20;;;;;;;3.00;2.40;;;25.10;99.60;;;;;;4160991;28;20993;-75
2022/08/11 03:50:33;;;;;;;3.63;2.40;;;25.10;99.70;;;;;;4162977;28;20258;-75
2022/08/11 03:52:47;;;;;;;4.32;2.50;;;25.10;99.60;;;;;;4163808;28;20687;-75
2022/08/11 03:55:00;;;;;;;3.55;2.40;;;25.10;99.60;;;;;;4159597;28;20208;-75
2022/08/11 03:57:46;;;;;;;3.50;2.30;;;25.10;99.80;;;;;;4156686;28;20285;-75
2022/08/11 04:00:11;;;;;;;4.13;2.10;;;25.10;99.80;;;;;;4163128;28;20232;-75
2022/08/11 04:02:38;;;;;;;3.03;2.35;;;25.10;99.70;;;;;;4163001;28;20262;-75
2022/08/11 04:05:10;;;;;;;3.83;2.35;;;25.10;99.80;;;;;;4162391;28;20279;-75
2022/08/11 04:07:59;;;;;;;2.63;2.28;;;25.10;99.90;;;;;;4163093;28;20278;-75
2022/08/11 04:10:37;;;;;;;2.97;2.25;;;25.10;99.90;;;;;;4156458;28;20232;-75
2022/08/11 04:13:19;;;;;;;3.63;2.40;;;25.10;99.90;;;;;;4162887;28;20220;-75
2022/08/11 04:16:01;;;;;;;2.92;2.30;;;25.10;99.90;;;;;;4159340;28;20232;-75
2022/08/11 04:18:42;;;;;;;2.65;2.20;;;25.10;99.90;;;;;;4156960;28;20212;-75
2022/08/11 04:20:59;;;;;;;2.60;2.05;;;25.00;99.90;;;;;;4162473;28;20251;-75
2022/08/11 04:23:34;;;;;;;3.75;2.22;;;25.10;99.90;;;;;;4163008;28;20208;-75
2022/08/11 04:26:05;;;;;;;3.53;2.20;;;25.00;99.90;;;;;;4162489;28;20220;-75
2022/08/11 04:28:50;;;;;;;4.30;2.25;;;25.00;99.90;;;;;;4163149;28;20220;-75
2022/08/11 04:31:33;;;;;;;3.20;2.58;;;25.00;99.90;;;;;;4142926;28;20313;-76
2022/08/11 04:33:58;;;;;;;2.72;2.03;;;25.00;99.90;;;;;;4162610;28;20605;-75
2022/08/11 04:36:13;;;;;;;2.90;2.30;;;25.00;99.90;;;;;;4163033;28;20266;-75
2022/08/11 04:38:44;;;;;;;3.00;2.50;;;25.00;99.90;;;;;;4162892;28;20279;-75
2022/08/11 04:41:13;;;;;;;2.97;2.30;;;25.00;99.90;;;;;;4162267;28;20259;-75
2022/08/11 04:43:37;;;;;;;2.47;2.28;;;25.00;99.90;;;;;;4162499;28;20220;-75
2022/08/11 04:46:06;;;;;;;2.60;2.33;;;25.00;99.90;;;;;;4162161;28;20289;-76
2022/08/11 05:02:16;;;;;;;2.95;2.53;;;25.00;99.90;;;;;;4162410;28;20196;-75
2022/08/11 05:07:52;;;;;;;3.35;2.55;;;24.90;99.90;;;;;;4162821;28;20196;-76
2022/08/11 05:10:08;;;;;;;2.85;2.47;;;25.00;99.90;;;;;;4154648;28;20259;-75
2022/08/11 05:12:29;;;;;;;2.40;2.20;;;24.90;99.90;;;;;;4162242;28;20240;-75
2022/08/11 05:36:50;;;;;;;3.55;2.50;;;24.90;99.90;;;;;;4161939;28;20205;-75
2022/08/11 05:58:03;;;;;;;4.35;2.35;;;24.90;99.90;;;;;;4161773;28;20196;-76
2022/08/11 06:00:09;;;;;;;4.22;2.35;;;24.90;99.90;;;;;;4161463;28;20286;-75
2022/08/11 06:02:13;;;;;;;3.85;2.33;;;24.90;99.90;;;;;;4161411;28;20299;-76
2022/08/11 06:04:21;;;;;;;5.35;2.35;;;24.90;99.90;;;;;;4161943;28;20278;-75
2022/08/11 06:06:27;;;;;;;2.90;2.20;;;24.90;99.90;;;;;;4161606;28;20219;-76
2022/08/11 06:08:34;;;;;;;5.22;2.60;;;24.90;99.90;;;;;;4161178;28;20208;-75
2022/08/11 06:10:41;;;;;;;4.18;2.10;;;24.90;99.90;;;;;;4161321;28;20259;-76
2022/08/11 06:12:44;;;;;;;3.35;2.30;;;24.90;99.90;;;;;;4160986;28;20232;-75
2022/08/11 06:14:48;;;;;;;4.20;2.40;;;24.90;99.90;;;;;;4161422;28;20212;-75
2022/08/11 06:16:54;;;;;;;3.65;2.22;;;24.90;99.90;;;;;;4154371;28;20271;-75
2022/08/11 06:18:59;;;;;;;5.38;2.80;;;24.90;99.90;;;;;;4161534;28;20212;-75
2022/08/11 06:21:01;;;;;;;2.85;2.42;;;24.90;99.90;;;;;;4161304;28;20213;-75
2022/08/11 06:23:08;;;;;;;4.60;2.65;;;24.90;99.90;;;;;;4161551;28;20209;-75
2022/08/11 06:25:12;;;;;;;4.30;2.25;;;24.90;99.90;;;;;;4161709;28;20621;-75
2022/08/11 06:27:20;;;;;;;5.47;2.17;;;24.90;99.90;;;;;;4161391;28;20601;-76
2022/08/11 06:29:25;;;;;;;4.00;2.60;;;24.90;99.90;;;;;;4157369;28;20207;-75
2022/08/11 06:31:28;;;;;;;4.53;2.40;;;24.90;99.90;;;;;;4161026;28;20220;-75
2022/08/11 06:33:36;;;;;;;3.58;2.50;;;24.90;99.90;;;;;;4161101;28;20283;-75
2022/08/11 06:35:51;;;;;;;4.93;2.33;;;24.90;99.90;;;;;;4164394;28;20555;-76
2022/08/11 06:38:05;;;;;;;3.10;2.30;;;24.90;99.90;;;;;;4164687;28;20204;-75
2022/08/11 06:40:12;;;;;;;3.45;2.53;;;24.90;99.90;;;;;;4164395;28;20212;-75
2022/08/11 06:42:31;;;;;;;5.07;2.38;;;24.90;99.90;;;;;;4164656;28;20223;-75
2022/08/11 06:44:40;;;;;;;3.55;2.10;;;24.90;99.90;;;;;;4164148;28;20250;-76
2022/08/11 06:46:46;;;;;;;3.60;2.60;;;24.90;99.90;;;;;;4162752;28;20216;-75
2022/08/11 06:48:49;;;;;;;4.15;2.40;;;24.90;99.90;;;;;;4164255;28;20319;-75
2022/08/11 06:51:12;;;;;;;3.45;2.30;;;24.90;99.90;;;;;;4158119;28;20308;-75
2022/08/11 06:53:17;;;;;;;4.68;2.55;;;24.90;99.90;;;;;;4161445;28;21080;-75
2022/08/11 07:02:41;;;;;;;3.30;2.45;;;24.90;99.90;;;;;;4146590;28;20552;-76
2022/08/11 07:04:49;;;;;;;2.67;2.35;;;24.90;99.90;;;;;;4158132;28;20734;-75
2022/08/11 07:17:31;;;;;;;9.60;3.75;;;24.30;99.20;;;;;;4163013;28;20184;-76
2022/08/11 07:29:06;;;;;;;7.15;3.70;;;24.20;98.90;;;;;;4161774;28;20208;-76
2022/08/11 07:31:12;;;;;;;8.05;3.25;;;24.20;98.60;;;;;;4161210;28;20722;-76
2022/08/11 07:33:22;;;;;;;5.85;3.40;;;24.20;98.60;;;;;;4160701;28;20278;-75
2022/08/11 07:35:32;;;;;;;6.45;3.40;;;24.30;98.30;;;;;;4160900;28;20216;-75
2022/08/11 07:37:34;;;;;;;5.68;3.25;;;24.30;98.20;;;;;;4157179;28;20216;-76
2022/08/11 07:39:38;;;;;;;5.05;3.30;;;24.30;98.20;;;;;;4157421;28;20274;-74
2022/08/11 07:41:42;;;;;;;7.07;3.40;;;24.40;98.50;;;;;;4160299;28;20630;-75
2022/08/11 07:43:50;;;;;;;7.07;3.40;;;24.40;98.90;;;;;;4161494;28;20279;-74
2022/08/11 07:53:17;;;;;;;5.57;3.13;;;24.70;98.90;;;;;;4160397;28;20216;-74
2022/08/11 07:55:24;;;;;;;7.30;3.80;;;24.70;98.20;;;;;;4158737;28;20675;-74
2022/08/11 08:19:15;;;;;;;6.63;3.10;;;25.10;97.50;;;;;;4155198;28;20205;-73
2022/08/11 08:21:18;;;;;;;5.13;3.20;;;25.10;97.10;;;;;;4156388;28;20224;-72
2022/08/11 08:23:31;;;;;;;7.03;3.30;;;25.10;95.90;;;;;;4152357;28;20270;-75
2022/08/11 08:25:36;;;;;;;7.63;3.22;;;25.10;97.10;;;;;;4159842;28;20290;-76
2022/08/11 08:27:39;;;;;;;5.32;3.33;;;25.10;97.30;;;;;;4159141;28;20213;-75
2022/08/11 08:32:04;;;;;;;9.73;3.13;;;25.20;96.70;;;;;;4160142;28;20208;-74
2022/08/11 08:34:06;;;;;;;5.47;2.90;;;25.30;96.50;;;;;;4158776;28;20216;-74
2022/08/11 08:36:11;;;;;;;4.93;3.20;;;25.40;95.80;;;;;;4160885;28;20275;-76
2022/08/11 08:38:15;;;;;;;7.22;2.83;;;25.40;96.20;;;;;;4160702;28;20212;-76
2022/08/11 08:40:18;;;;;;;5.82;2.92;;;25.40;96.10;;;;;;4159913;28;20733;-75
2022/08/11 08:42:25;;;;;;;4.78;3.22;;;25.50;96.10;;;;;;4158203;28;20204;-74
2022/08/11 08:44:28;;;;;;;8.38;3.08;;;25.60;96.10;;;;;;4158388;28;20236;-74
2022/08/11 08:46:36;;;;;;;8.25;3.13;;;25.60;95.90;;;;;;4160308;28;20270;-74
2022/08/11 08:48:38;;;;;;;10.43;3.20;;;25.60;95.70;;;;;;4160412;28;20220;-74
2022/08/11 08:53:08;;;;;;;5.60;3.38;;;25.60;95.00;;;;;;4160439;28;20228;-74
2022/08/11 08:55:17;;;;;;;6.88;3.00;;;25.70;94.70;;;;;;4157459;28;20216;-74
2022/08/11 08:57:22;;;;;;;6.18;2.90;;;25.70;94.70;;;;;;4156815;28;20620;-75
2022/08/11 08:59:26;;;;;;;8.02;3.15;;;25.70;93.90;;;;;;4158013;28;20216;-75
2022/08/11 09:01:31;;;;;;;4.85;2.70;;;25.80;93.50;;;;;;4160546;28;20216;-75
2022/08/11 09:03:36;;;;;;;6.57;2.78;;;25.70;93.40;;;;;;4157899;28;20262;-74
2022/08/11 09:05:40;;;;;;;7.55;3.10;;;25.80;93.60;;;;;;4161368;28;20213;-76
2022/08/11 09:07:46;;;;;;;4.45;2.97;;;25.80;93.30;;;;;;4158803;28;20213;-76
2022/08/11 09:09:52;;;;;;;4.28;3.05;;;25.90;93.60;;;;;;4160808;28;20213;-75
2022/08/11 09:11:54;;;;;;;8.27;2.97;;;25.90;93.20;;;;;;4158995;28;20275;-75
2022/08/11 09:13:57;;;;;;;6.60;3.38;;;26.10;93.20;;;;;;4157978;28;20235;-75
2022/08/11 09:15:59;;;;;;;7.95;2.90;;;26.10;93.40;;;;;;4155124;28;20361;-75
2022/08/11 09:18:04;;;;;;;6.10;3.08;;;26.10;93.60;;;;;;4160148;28;20266;-76
2022/08/11 09:20:09;;;;;;;6.28;2.95;;;26.10;93.30;;;;;;4157401;28;20338;-75
2022/08/11 09:26:59;;;;;;;3.97;2.95;;;26.20;93.10;;;;;;4157430;28;20209;-74
2022/08/11 09:29:03;;;;;;;7.78;3.33;;;26.10;93.10;;;;;;4157669;28;20282;-75
2022/08/11 09:31:06;;;;;;;5.28;3.20;;;26.10;92.90;;;;;;4157658;28;20278;-73
2022/08/11 09:33:11;;;;;;;7.18;2.88;;;26.10;92.70;;;;;;4158808;28;20262;-73
2022/08/11 09:35:16;;;;;;;5.78;2.90;;;26.10;92.70;;;;;;4158727;28;20278;-73
2022/08/11 09:42:04;;;;;;;5.63;3.20;;;26.30;91.70;;;;;;4156421;28;20237;-75
2022/08/11 09:46:29;;;;;;;6.57;3.00;;;26.40;90.90;;;;;;4154700;28;20209;-73
2022/08/11 09:48:36;;;;;;;7.03;2.90;;;26.40;90.80;;;;;;4156940;28;20285;-74
2022/08/11 09:50:39;;;;;;;4.97;3.00;;;26.30;90.80;;;;;;4160217;28;20220;-74
2022/08/11 09:52:47;;;;;;;5.25;2.95;;;26.50;90.40;;;;;;4158576;28;20220;-74
2022/08/11 09:54:50;;;;;;;3.40;3.05;;;26.50;90.70;;;;;;4158745;28;20695;-72
2022/08/11 09:59:14;;;;;;;7.47;3.22;;;26.60;90.10;;;;;;4157306;28;20197;-74
2022/08/11 10:01:26;;;;;;;7.25;2.85;;;26.60;90.20;;;;;;4157819;28;20610;-73
2022/08/11 10:03:33;;;;;;;5.15;2.88;;;26.50;90.20;;;;;;4154455;28;20638;-74
2022/08/11 10:07:58;;;;;;;6.07;3.10;;;26.60;89.80;;;;;;4155118;28;20200;-73
2022/08/11 10:10:04;;;;;;;6.45;3.00;;;26.80;88.30;;;;;;4157844;28;20229;-73
2022/08/11 10:12:10;;;;;;;4.88;3.10;;;26.70;89.10;;;;;;4157443;28;20212;-72
2022/08/11 10:16:40;;;;;;;7.75;3.40;;;26.70;89.40;;;;;;4157169;28;20220;-74
2022/08/11 10:18:48;;;;;;;6.13;3.30;;;26.80;88.80;;;;;;4154869;28;20262;-76
2022/08/11 10:20:52;;;;;;;5.35;2.80;;;26.90;89.00;;;;;;4160381;28;20257;-73
2022/08/11 10:27:36;;;;;;;7.97;3.40;;;26.90;88.30;;;;;;4157112;28;20192;-73
2022/08/11 10:34:23;;;;;;;7.07;3.38;;;26.90;87.80;;;;;;4159102;28;20216;-73
2022/08/11 10:36:27;;;;;;;3.33;2.70;;;26.90;87.90;;;;;;4158424;28;20220;-74
2022/08/11 10:38:30;;;;;;;4.50;2.88;;;26.90;87.90;;;;;;4158113;28;20560;-74
2022/08/11 10:40:34;;;;;;;6.65;3.13;;;27.00;88.10;;;;;;4158210;28;20213;-74
2022/08/11 10:45:01;;;;;;;4.40;2.70;;;27.00;87.20;;;;;;4153728;28;20339;-74
2022/08/11 10:49:27;;;;;;;5.05;2.65;;;27.30;86.30;;;;;;4155985;28;20192;-73
2022/08/11 10:58:46;;;;;;;6.35;3.30;;;27.30;86.90;;;;;;4156412;28;20201;-74
2022/08/11 11:00:50;;;;;;;3.95;2.85;;;27.40;84.70;;;;;;4159151;28;20220;-74
2022/08/11 11:02:53;;;;;;;5.93;2.63;;;27.30;85.10;;;;;;4159097;28;20239;-75
2022/08/11 11:05:02;;;;;;;4.25;3.03;;;27.30;85.40;;;;;;4158245;28;20279;-76
2022/08/11 11:07:13;;;;;;;6.40;3.05;;;27.20;85.30;;;;;;4159101;28;20216;-75
2022/08/11 11:09:19;;;;;;;8.35;3.42;;;27.30;85.40;;;;;;4159126;28;20212;-75
2022/08/11 11:17:54;;;;;;;5.13;3.15;;;27.30;85.40;;;;;;4159712;28;20727;-75
2022/08/11 11:18:43;;;;;;;6.45;2.88;;;27.40;85.90;;;;;;4156511;28;20225;-74
2022/08/11 11:20:51;;;;;;;6.10;3.17;;;27.40;85.90;;;;;;4161876;28;20217;-76
2022/08/11 11:22:57;;;;;;;3.70;3.20;;;27.50;85.50;;;;;;4160540;28;20313;-75
2022/08/11 11:25:07;;;;;;;7.80;2.88;;;27.50;85.50;;;;;;4142993;28;20317;-75
2022/08/11 11:27:18;;;;;;;8.32;3.13;;;27.50;85.50;;;;;;4158418;28;20306;-74
2022/08/11 11:29:51;;;;;;;5.00;2.95;;;27.40;85.40;;;;;;4157944;28;20216;-75
2022/08/11 11:32:16;;;;;;;4.80;2.85;;;27.40;85.50;;;;;;4156554;28;20266;-74
2022/08/11 11:34:31;;;;;;;5.32;3.22;;;27.50;85.50;;;;;;4156944;28;20248;-75
2022/08/11 11:36:45;;;;;;;5.03;2.85;;;27.60;83.50;;;;;;4161486;28;20224;-75
2022/08/11 11:38:47;;;;;;;5.88;2.75;;;27.80;82.40;;;;;;4159467;28;20274;-75
2022/08/11 11:41:23;;;;;;;4.38;2.90;;;27.70;83.90;;;;;;4160665;28;20672;-74
2022/08/11 11:43:13;;;;;;;3.60;3.08;;;27.70;83.10;;;;;;4158394;28;20275;-75
2022/08/11 11:45:17;;;;;;;3.13;2.60;;;27.60;83.60;;;;;;4161899;28;20315;-74
2022/08/11 11:47:22;;;;;;;6.75;2.63;;;27.70;82.80;;;;;;4161316;28;20286;-75
2022/08/11 11:49:28;;;;;;;5.43;2.83;;;27.60;83.30;;;;;;4161985;28;20216;-74
2022/08/11 11:51:31;;;;;;;7.93;3.35;;;27.60;83.70;;;;;;4157005;28;20271;-75
2022/08/11 11:53:35;;;;;;;4.75;2.65;;;27.70;83.20;;;;;;4157505;28;20266;-74
2022/08/11 11:55:37;;;;;;;3.58;2.72;;;27.70;82.80;;;;;;4160838;28;20717;-75
2022/08/11 12:02:21;;;;;;;4.57;3.08;;;27.60;81.80;;;;;;4159333;28;20200;-74
2022/08/11 12:04:24;;;;;;;6.93;3.17;;;27.70;81.00;;;;;;4157352;28;20943;-75
2022/08/11 12:06:27;;;;;;;8.63;3.00;;;27.80;80.50;;;;;;4158144;28;20209;-74
2022/08/11 12:08:30;;;;;;;5.40;2.60;;;27.80;80.10;;;;;;4159944;28;20220;-74
2022/08/11 12:10:32;;;;;;;3.60;2.60;;;27.80;79.50;;;;;;4159666;28;20315;-74
2022/08/11 12:14:55;;;;;;;4.43;2.83;;;27.90;78.40;;;;;;4158249;28;20593;-74
2022/08/11 12:16:58;;;;;;;7.93;2.88;;;27.90;77.50;;;;;;4160301;28;20275;-74
2022/08/11 12:19:05;;;;;;;4.47;2.67;;;27.90;78.00;;;;;;4157870;28;20655;-74
2022/08/11 12:21:09;;;;;;;4.90;2.47;;;27.90;77.80;;;;;;4160536;28;20262;-75
2022/08/11 12:27:55;;;;;;;4.22;2.70;;;28.00;77.20;;;;;;4159522;28;20204;-74
2022/08/11 12:30:05;;;;;;;3.95;2.80;;;28.10;75.70;;;;;;4156412;28;20641;-75
2022/08/11 12:32:08;;;;;;;3.67;2.83;;;28.10;75.50;;;;;;4159260;28;20220;-75
2022/08/11 12:34:13;;;;;;;6.30;2.65;;;28.10;74.80;;;;;;4156696;28;20241;-75
2022/08/11 12:36:16;;;;;;;2.72;2.28;;;28.20;74.40;;;;;;4159148;28;20216;-73
2022/08/11 12:38:20;;;;;;;2.58;2.38;;;28.40;74.40;;;;;;4159822;28;20262;-73
2022/08/11 12:45:28;;;;;;;4.43;2.78;;;28.40;74.20;;;;;;4157810;28;20224;-75
2022/08/11 12:51:55;;;;;;;5.07;2.58;;;28.30;74.30;;;;;;4156791;28;20633;-74
2022/08/11 12:52:24;;;;;;;3.20;2.50;;;28.20;74.30;;;;;;4160368;28;20234;-74
2022/08/11 12:54:31;;;;;;;5.68;2.78;;;28.30;74.20;;;;;;4159739;28;20244;-73
2022/08/11 13:06:05;;;;;;;5.07;2.92;;;28.40;74.20;;;;;;4160663;28;20204;-74
2022/08/11 13:08:08;;;;;;;3.72;2.40;;;28.40;72.80;;;;;;4154192;28;20290;-74
2022/08/11 13:10:14;;;;;;;5.45;2.60;;;28.40;73.20;;;;;;4156015;28;20224;-73
2022/08/11 13:14:36;;;;;;;5.55;3.95;;;28.50;72.30;;;;;;4157058;28;20224;-74
2022/08/11 13:18:57;;;;;;;3.85;3.35;;;28.70;70.50;;;;;;4156513;28;20208;-73
2022/08/11 13:21:00;;;;;;;4.97;2.20;;;28.70;71.10;;;;;;4160197;28;20270;-73
2022/08/11 13:23:05;;;;;;;3.60;2.40;;;29.00;66.90;;;;;;4154798;28;20294;-73
2022/08/11 13:25:09;;;;;;;5.07;2.53;;;28.90;68.10;;;;;;4161003;28;20270;-73
2022/08/11 13:27:12;;;;;;;3.58;3.10;;;28.80;69.50;;;;;;4158232;28;20220;-75
2022/08/11 13:29:20;;;;;;;4.93;3.08;;;28.80;68.70;;;;;;4160828;28;20212;-73
2022/08/11 13:31:23;;;;;;;3.55;2.58;;;28.80;68.90;;;;;;4158362;28;20628;-72
2022/08/11 13:33:26;;;;;;;4.32;2.47;;;28.90;69.00;;;;;;4160943;28;20614;-73
2022/08/11 13:35:30;;;;;;;6.45;2.40;;;28.90;69.30;;;;;;4157000;28;20240;-73
2022/08/11 13:37:34;;;;;;;2.55;2.30;;;29.00;69.10;;;;;;4151855;28;20287;-75
2022/08/11 13:39:42;;;;;;;3.03;2.35;;;29.00;68.90;;;;;;4156001;28;20224;-75
2022/08/11 13:41:46;;;;;;;3.55;2.38;;;29.00;69.00;;;;;;4157965;28;20208;-75
2022/08/11 13:43:53;;;;;;;4.85;2.78;;;28.90;69.30;;;;;;4160581;28;20254;-76
2022/08/11 13:46:17;;;;;;;5.95;2.67;;;29.00;70.30;;;;;;4157300;28;20224;-75
2022/08/11 13:48:20;;;;;;;2.97;2.20;;;29.00;69.50;;;;;;4160030;28;20569;-74
2022/08/11 13:51:29;;;;;;;3.88;2.20;;;29.10;69.40;;;;;;4158505;28;20212;-74
2022/08/11 13:52:50;;;;;;;3.42;2.20;;;29.10;69.20;;;;;;4157193;28;20262;-74
2022/08/11 13:54:57;;;;;;;3.72;2.08;;;29.00;68.70;;;;;;4155423;28;20270;-73
2022/08/11 13:57:02;;;;;;;5.15;2.30;;;29.30;67.10;;;;;;4158444;28;20216;-74
2022/08/11 13:59:06;;;;;;;3.95;2.30;;;29.20;68.30;;;;;;4157973;28;20730;-74
2022/08/11 14:01:10;;;;;;;3.95;2.45;;;29.10;69.10;;;;;;4159017;28;20217;-74
2022/08/11 14:03:13;;;;;;;4.28;2.08;;;29.10;68.90;;;;;;4156712;28;20213;-75
2022/08/11 14:05:18;;;;;;;4.45;2.60;;;29.20;68.50;;;;;;4159457;28;20247;-74
2022/08/11 14:07:22;;;;;;;2.97;2.17;;;29.20;69.30;;;;;;4157542;28;20278;-75
2022/08/11 14:09:29;;;;;;;4.05;2.10;;;29.20;69.00;;;;;;4159413;28;20208;-74
2022/08/11 14:13:57;;;;;;;2.35;2.15;;;29.30;68.20;;;;;;4159279;28;20212;-75
2022/08/11 14:16:03;;;;;;;3.38;2.22;;;29.30;68.10;;;;;;4158652;28;20268;-75
2022/08/11 14:18:09;;;;;;;2.50;2.10;;;29.50;67.90;;;;;;4156613;28;20220;-74
2022/08/11 14:20:16;;;;;;;5.03;2.35;;;29.40;67.80;;;;;;4159080;28;20982;-74
2022/08/11 14:22:20;;;;;;;4.22;2.50;;;29.40;67.80;;;;;;4159295;28;20212;-74
2022/08/11 14:24:27;;;;;;;3.40;2.33;;;29.40;67.80;;;;;;4156343;28;21020;-74
2022/08/11 14:26:37;;;;;;;5.57;2.40;;;29.40;67.70;;;;;;4156453;28;20290;-74
2022/08/11 14:28:41;;;;;;;3.83;2.13;;;29.40;68.40;;;;;;4155086;28;20282;-74
2022/08/11 14:30:57;;;;;;;6.10;2.53;;;29.40;68.20;;;;;;4166651;28;20215;-74
2022/08/11 14:32:59;;;;;;;5.60;2.10;;;29.50;68.20;;;;;;4154554;28;20262;-74
2022/08/11 14:35:03;;;;;;;3.72;2.35;;;29.60;65.70;;;;;;4155041;28;20228;-74
2022/08/11 14:37:09;;;;;;;3.15;2.30;;;29.60;66.00;;;;;;4159629;28;20270;-75
2022/08/11 14:39:19;;;;;;;3.55;2.50;;;29.60;65.20;;;;;;4156679;28;20220;-75
2022/08/11 14:48:41;;;;;;;5.65;2.65;;;29.60;65.90;;;;;;4233001;27;20201;-75
2022/08/11 14:50:43;;;;;;;3.35;2.55;;;29.60;66.20;;;;;;4240429;27;20208;-75
2022/08/11 14:52:51;;;;;;;3.70;2.55;;;29.70;66.40;;;;;;4236906;27;20265;-77
2022/08/11 14:57:15;;;;;;;3.38;2.55;;;29.80;66.20;;;;;;4234259;27;20696;-76
2022/08/11 14:59:17;;;;;;;7.00;2.80;;;29.90;66.50;;;;;;4235499;27;20220;-77
2022/08/11 15:03:41;;;;;;;3.38;2.58;;;29.90;65.70;;;;;;4237187;27;20633;-77
2022/08/11 15:05:50;;;;;;;2.42;2.22;;;30.00;65.60;;;;;;4233916;27;20241;-76
2022/08/11 15:07:53;;;;;;;3.28;2.60;;;30.10;66.10;;;;;;4227678;27;20657;-76
2022/08/11 15:09:57;;;;;;;2.75;2.45;;;29.90;65.60;;;;;;4232356;27;20263;-76
2022/08/11 15:12:15;;;;;;;6.95;2.67;;;30.00;65.40;;;;;;4236052;27;20205;-76
2022/08/11 15:17:06;;;;;;;8.52;2.50;;;30.10;65.20;;;;;;4237828;27;20610;-74
2022/08/11 15:19:04;;;;;;;3.00;2.40;;;30.20;64.90;;;;;;4228430;27;20660;-76
2022/08/11 15:25:51;;;;;;;7.15;2.70;;;30.40;64.00;;;;;;4238646;27;20225;-76